Time;durP1;ratioP1;P1;durP2;ratioP2;P2;SDS_P1;SDS_P2;PMS_P1;PMS_P2;Temp;Humidity;BMP_temperature;BMP_pressure;BME280_temperature;BME280_humidity;BME280_pressure;Samples;Min_cycle;Max_cycle;Signal;HPM_P1;HPM_P2
2022/10/12 06:41:43;;;;;;;72.53;32.03;;;11.60;99.90;;;;;;5130125;27;20363;-83
2022/10/12 06:44:08;;;;;;;68.67;31.53;;;11.60;99.90;;;;;;5097407;28;20200;-85
2022/10/12 06:46:34;;;;;;;76.33;34.57;;;11.60;99.90;;;;;;5095855;28;20197;-85
2022/10/12 10:40:29;;;;;;;22.97;13.30;;;14.60;99.90;;;;;;5136189;27;20628;-82
2022/10/12 10:42:57;;;;;;;19.93;12.07;;;14.50;99.90;;;;;;5136411;28;20209;-83
2022/10/12 10:45:31;;;;;;;19.33;12.67;;;14.50;99.90;;;;;;5117597;28;20178;-83
2022/10/12 10:48:00;;;;;;;19.17;11.63;;;14.50;99.90;;;;;;5129105;28;20199;-83
2022/10/12 10:50:30;;;;;;;18.33;11.67;;;14.70;99.90;;;;;;5135885;27;20174;-83
2022/10/12 10:52:59;;;;;;;18.67;11.07;;;14.80;99.90;;;;;;5133747;28;20235;-82
2022/10/12 10:55:45;;;;;;;16.23;11.23;;;14.90;99.90;;;;;;5135417;27;20250;-82
2022/10/12 10:58:33;;;;;;;17.67;11.77;;;15.00;99.90;;;;;;5132883;28;20198;-83
2022/10/12 11:01:04;;;;;;;16.60;11.63;;;15.10;99.90;;;;;;5133227;27;20175;-83
2022/10/12 11:03:40;;;;;;;15.87;10.33;;;15.20;99.90;;;;;;5133156;27;20167;-83
2022/10/12 11:06:26;;;;;;;18.00;12.00;;;15.30;99.90;;;;;;5132599;28;20169;-82
2022/10/12 11:09:00;;;;;;;19.30;11.30;;;15.40;99.90;;;;;;5133012;28;20170;-83
2022/10/12 11:11:28;;;;;;;20.17;11.50;;;15.50;99.90;;;;;;5134548;27;20155;-81
2022/10/12 11:14:26;;;;;;;16.60;11.07;;;15.60;99.90;;;;;;5134077;27;20186;-81
2022/10/12 11:17:04;;;;;;;18.00;10.57;;;15.70;99.90;;;;;;5126903;28;20225;-83
2022/10/12 11:19:42;;;;;;;19.30;11.40;;;15.70;99.90;;;;;;5134926;27;20189;-83
2022/10/12 11:22:31;;;;;;;17.23;10.40;;;15.80;99.90;;;;;;5134135;28;20188;-83
2022/10/12 11:25:29;;;;;;;14.20;10.20;;;15.70;99.90;;;;;;5134434;27;20159;-82
2022/10/12 11:27:55;;;;;;;17.20;10.37;;;15.60;99.90;;;;;;5134248;27;20191;-81
2022/10/12 11:30:25;;;;;;;17.33;10.47;;;15.60;99.90;;;;;;5134897;27;20595;-82
2022/10/12 11:32:58;;;;;;;18.73;9.83;;;15.60;99.90;;;;;;5133167;28;20250;-83
2022/10/12 11:35:33;;;;;;;13.57;9.80;;;15.70;99.90;;;;;;5132991;28;20263;-83
2022/10/12 11:38:12;;;;;;;14.57;10.07;;;15.80;99.90;;;;;;5133773;27;20194;-82
2022/10/12 11:40:47;;;;;;;17.50;10.70;;;15.80;99.90;;;;;;5133211;28;20175;-82
2022/10/12 11:43:20;;;;;;;17.77;11.17;;;15.90;99.90;;;;;;5132200;28;20185;-82
2022/10/12 11:45:49;;;;;;;12.40;9.90;;;15.90;99.90;;;;;;5134028;27;20163;-84
2022/10/12 11:48:37;;;;;;;16.40;9.67;;;15.90;99.90;;;;;;5134016;28;20195;-82
2022/10/12 11:51:04;;;;;;;17.87;10.40;;;16.10;99.90;;;;;;5123555;28;20633;-82
2022/10/12 11:53:54;;;;;;;18.10;10.93;;;16.20;99.90;;;;;;5119259;28;20209;-82
2022/10/12 11:56:37;;;;;;;17.00;9.77;;;16.40;99.90;;;;;;5119114;28;20175;-83
2022/10/12 11:59:14;;;;;;;14.37;9.80;;;16.60;99.90;;;;;;5120650;28;20690;-82
2022/10/12 12:01:46;;;;;;;13.67;9.10;;;16.60;99.90;;;;;;5120115;28;20164;-82
2022/10/12 12:04:22;;;;;;;18.87;10.17;;;16.50;99.90;;;;;;5119302;28;20179;-83
2022/10/12 12:06:58;;;;;;;15.67;10.30;;;16.50;99.90;;;;;;5119915;28;20263;-81
2022/10/12 12:09:42;;;;;;;13.47;9.07;;;16.40;99.90;;;;;;5120732;28;20184;-82
2022/10/12 12:12:13;;;;;;;11.20;8.43;;;16.40;99.90;;;;;;5122034;27;20184;-82
2022/10/12 12:14:46;;;;;;;15.67;8.70;;;16.50;99.90;;;;;;5120416;28;20262;-84
2022/10/12 12:17:18;;;;;;;18.53;8.90;;;16.50;99.90;;;;;;5122054;27;20649;-83
2022/10/12 12:19:54;;;;;;;15.63;8.80;;;16.60;99.90;;;;;;5121344;28;20199;-85
2022/10/12 12:22:22;;;;;;;14.23;9.33;;;16.60;99.90;;;;;;5119725;28;20639;-84
2022/10/12 12:24:55;;;;;;;17.67;8.73;;;16.50;99.90;;;;;;5121273;28;20251;-84
2022/10/12 12:27:43;;;;;;;12.83;9.13;;;16.50;99.90;;;;;;5122364;28;20192;-83
2022/10/12 12:30:18;;;;;;;14.50;10.03;;;16.50;99.90;;;;;;5122152;28;20699;-84
2022/10/12 12:32:49;;;;;;;14.73;9.37;;;16.50;99.90;;;;;;5124871;28;20179;-82
2022/10/12 12:35:20;;;;;;;14.53;9.47;;;16.40;99.90;;;;;;5129281;28;20183;-82
2022/10/12 12:37:47;;;;;;;16.67;9.00;;;16.40;99.90;;;;;;5134623;28;20207;-81
2022/10/12 12:40:23;;;;;;;13.17;8.80;;;16.40;99.90;;;;;;5136150;28;20231;-81
2022/10/12 12:42:49;;;;;;;14.67;8.40;;;16.40;99.90;;;;;;5135262;28;20172;-79
2022/10/12 12:45:31;;;;;;;11.37;8.53;;;16.30;99.90;;;;;;5129006;28;20175;-83
2022/10/12 12:47:56;;;;;;;15.90;9.43;;;16.30;99.90;;;;;;5117920;28;20275;-83
2022/10/12 12:50:36;;;;;;;17.20;8.23;;;16.20;99.90;;;;;;5118024;28;20203;-82
2022/10/12 12:53:27;;;;;;;17.03;9.07;;;16.10;99.90;;;;;;5119622;28;20152;-82
2022/10/12 12:56:36;;;;;;;15.93;8.57;;;16.20;99.90;;;;;;5114656;28;20180;-83
2022/10/12 12:59:05;;;;;;;12.93;8.80;;;16.30;99.90;;;;;;5112096;28;20839;-81
2022/10/12 13:01:45;;;;;;;16.80;8.60;;;16.40;99.90;;;;;;5116442;28;20179;-82
2022/10/12 13:04:17;;;;;;;14.37;9.10;;;16.70;99.90;;;;;;5117931;28;20178;-82
2022/10/12 13:06:55;;;;;;;13.20;8.27;;;17.10;99.90;;;;;;5118661;28;20192;-83
2022/10/12 13:09:26;;;;;;;15.33;8.07;;;17.30;99.90;;;;;;5117826;28;20155;-84
2022/10/12 13:12:16;;;;;;;16.63;8.83;;;17.60;99.90;;;;;;5118353;28;20168;-83
2022/10/12 13:15:03;;;;;;;12.20;7.97;;;17.60;99.90;;;;;;5117447;28;20160;-82
2022/10/12 13:17:40;;;;;;;11.90;8.70;;;17.50;99.90;;;;;;5117435;28;20627;-82
2022/10/12 13:20:29;;;;;;;14.10;8.87;;;17.50;99.90;;;;;;5118000;28;20209;-84
2022/10/12 13:22:56;;;;;;;16.40;8.87;;;17.50;99.90;;;;;;5116930;28;20172;-82
2022/10/12 13:25:41;;;;;;;15.43;9.20;;;17.60;99.90;;;;;;5117390;28;20172;-81
2022/10/12 13:28:13;;;;;;;13.83;8.90;;;18.00;99.90;;;;;;5118520;28;20685;-83
2022/10/12 13:31:03;;;;;;;14.50;8.47;;;18.50;99.90;;;;;;5117340;28;20173;-83
2022/10/12 13:33:31;;;;;;;16.60;8.27;;;18.80;99.90;;;;;;5117521;28;20251;-82
2022/10/12 13:36:08;;;;;;;15.87;7.63;;;18.70;99.90;;;;;;5117373;28;20178;-82
2022/10/12 13:38:37;;;;;;;10.47;7.63;;;18.40;99.90;;;;;;5117332;28;20552;-82
2022/10/12 13:41:21;;;;;;;14.60;7.83;;;18.10;99.90;;;;;;5117747;28;20178;-83
2022/10/12 13:43:47;;;;;;;15.07;8.87;;;17.80;99.90;;;;;;5118481;28;21098;-82
2022/10/12 13:46:45;;;;;;;16.17;8.80;;;17.60;99.90;;;;;;5117644;28;20237;-82
2022/10/12 13:49:32;;;;;;;19.57;8.20;;;17.40;99.90;;;;;;5116229;28;20206;-81
2022/10/12 13:52:21;;;;;;;12.00;7.53;;;17.20;99.90;;;;;;5117089;28;20171;-83
2022/10/12 13:54:48;;;;;;;9.07;7.13;;;17.20;99.90;;;;;;5117762;28;20279;-82
2022/10/12 13:57:27;;;;;;;15.33;7.33;;;17.10;99.90;;;;;;5117088;28;20271;-83
2022/10/12 13:59:59;;;;;;;12.57;8.03;;;17.00;99.90;;;;;;5116898;28;20726;-84
2022/10/12 14:02:28;;;;;;;14.93;8.10;;;17.00;99.90;;;;;;5117104;28;20172;-81
2022/10/12 14:04:56;;;;;;;15.67;7.93;;;17.00;99.90;;;;;;5116678;28;20241;-83
2022/10/12 14:07:32;;;;;;;16.57;7.67;;;16.90;99.90;;;;;;5115496;28;20195;-83
2022/10/12 14:10:15;;;;;;;15.60;8.30;;;16.70;99.90;;;;;;5116793;28;20167;-83
2022/10/12 14:12:44;;;;;;;17.77;8.50;;;16.50;99.90;;;;;;5117281;28;20161;-82
2022/10/12 14:15:13;;;;;;;13.43;8.60;;;16.40;99.90;;;;;;5116647;28;20175;-82
2022/10/12 14:17:46;;;;;;;14.80;7.90;;;16.40;99.90;;;;;;5116684;28;20207;-83
2022/10/12 14:20:31;;;;;;;12.90;8.00;;;16.40;99.90;;;;;;5116870;28;20180;-83
2022/10/12 14:22:58;;;;;;;16.13;8.03;;;16.50;99.90;;;;;;5115253;28;20167;-83
2022/10/12 14:25:27;;;;;;;13.00;7.70;;;16.50;99.90;;;;;;5115421;28;20614;-83
2022/10/12 14:28:04;;;;;;;16.17;8.57;;;16.60;99.90;;;;;;5116453;28;20215;-83
2022/10/12 14:30:37;;;;;;;13.47;7.67;;;16.60;99.90;;;;;;5116657;28;20174;-83
2022/10/12 14:33:15;;;;;;;12.03;7.67;;;16.60;99.90;;;;;;5116878;28;20613;-84
2022/10/12 14:35:45;;;;;;;12.53;7.50;;;16.60;99.90;;;;;;5116683;28;20164;-84
2022/10/12 14:38:38;;;;;;;14.90;8.07;;;16.60;99.90;;;;;;5114834;28;20876;-84
2022/10/12 14:41:58;;;;;;;13.53;7.53;;;16.60;99.90;;;;;;5115490;28;20178;-83
2022/10/12 14:44:25;;;;;;;11.63;7.30;;;16.50;99.90;;;;;;5058221;28;20539;-85
2022/10/12 14:47:28;;;;;;;13.07;7.90;;;16.30;99.90;;;;;;5105247;28;20200;-82
2022/10/12 14:49:56;;;;;;;14.07;7.57;;;16.20;99.90;;;;;;5115517;28;20703;-84
2022/10/12 14:52:33;;;;;;;10.13;7.67;;;16.00;99.90;;;;;;5117011;28;20174;-83
2022/10/12 14:54:58;;;;;;;15.37;8.97;;;15.80;99.90;;;;;;5119547;28;20526;-84
2022/10/12 14:57:29;;;;;;;13.20;8.67;;;15.80;99.90;;;;;;5117349;28;20218;-83
2022/10/12 14:59:55;;;;;;;16.90;8.33;;;15.70;99.90;;;;;;5116941;28;20687;-83
2022/10/12 15:02:28;;;;;;;18.13;8.57;;;15.60;99.90;;;;;;5115364;28;20171;-83
2022/10/12 15:04:55;;;;;;;18.93;9.03;;;15.60;99.90;;;;;;5119474;28;20168;-83
2022/10/12 15:07:33;;;;;;;15.77;8.33;;;15.50;99.90;;;;;;5117176;28;20195;-83
2022/10/12 15:09:59;;;;;;;15.77;8.00;;;15.50;99.90;;;;;;5116482;28;20513;-84
2022/10/12 15:12:26;;;;;;;12.63;7.00;;;15.50;99.90;;;;;;5117693;28;20560;-83
2022/10/12 15:14:54;;;;;;;12.40;7.90;;;15.50;99.90;;;;;;5116656;28;20176;-84
2022/10/12 15:17:20;;;;;;;12.73;7.93;;;15.40;99.90;;;;;;5117409;28;20237;-84
2022/10/12 15:19:48;;;;;;;14.00;8.60;;;15.40;99.90;;;;;;5116964;28;20195;-83
2022/10/12 15:22:22;;;;;;;15.87;9.27;;;15.30;99.90;;;;;;5118397;28;20172;-84
2022/10/12 15:24:49;;;;;;;17.13;10.20;;;15.30;99.90;;;;;;5117691;28;20160;-83
2022/10/12 15:27:15;;;;;;;14.73;7.90;;;15.20;99.90;;;;;;5121104;28;20195;-81
2022/10/12 15:29:40;;;;;;;17.20;9.90;;;15.20;99.90;;;;;;5124218;28;20633;-83
2022/10/12 15:32:08;;;;;;;20.93;9.17;;;15.00;99.90;;;;;;5122312;28;20175;-82
2022/10/12 15:34:33;;;;;;;16.33;8.93;;;15.00;99.90;;;;;;5122009;28;20194;-84
2022/10/12 15:36:59;;;;;;;15.07;8.20;;;14.90;99.90;;;;;;5122963;28;20195;-85
2022/10/12 15:39:25;;;;;;;12.27;8.23;;;14.90;99.90;;;;;;5122400;28;20246;-85
2022/10/12 15:41:50;;;;;;;15.57;9.10;;;14.80;99.90;;;;;;5124529;28;20182;-84
2022/10/12 15:44:16;;;;;;;14.60;8.63;;;14.70;99.90;;;;;;5126752;28;20219;-85
2022/10/12 15:46:43;;;;;;;15.80;8.13;;;14.70;99.90;;;;;;5128529;28;20195;-84
2022/10/12 15:49:09;;;;;;;15.17;8.33;;;14.60;99.90;;;;;;5131588;28;20171;-81
2022/10/12 15:51:50;;;;;;;17.73;7.83;;;14.50;99.90;;;;;;5139845;28;20198;-82
2022/10/12 15:54:16;;;;;;;18.17;8.80;;;14.40;99.90;;;;;;5122233;28;20156;-83
2022/10/12 15:56:42;;;;;;;39.03;11.40;;;14.30;99.90;;;;;;5119881;28;20203;-83
2022/10/12 15:59:08;;;;;;;17.40;8.57;;;14.20;99.90;;;;;;5121314;28;20225;-83
2022/10/12 16:01:35;;;;;;;21.33;9.10;;;14.20;99.90;;;;;;5119852;28;20178;-84
2022/10/12 16:04:02;;;;;;;14.90;9.90;;;14.10;99.90;;;;;;5120362;28;20216;-83
2022/10/12 16:06:28;;;;;;;14.93;10.43;;;14.10;99.90;;;;;;5121362;28;20172;-81
2022/10/12 16:08:54;;;;;;;21.27;11.17;;;14.00;99.90;;;;;;5120232;28;20180;-83
2022/10/12 16:11:19;;;;;;;22.03;12.47;;;13.90;99.90;;;;;;5124534;28;20183;-85
2022/10/12 16:13:47;;;;;;;20.03;11.67;;;13.90;99.90;;;;;;5118670;28;20184;-84
2022/10/12 16:16:14;;;;;;;19.77;12.07;;;13.90;99.90;;;;;;5119689;28;20250;-83
2022/10/12 16:18:40;;;;;;;21.77;12.43;;;13.80;99.90;;;;;;5118579;28;20253;-83
2022/10/12 16:21:05;;;;;;;17.27;11.33;;;13.80;99.90;;;;;;5119223;28;20649;-83
2022/10/12 16:23:33;;;;;;;19.00;11.83;;;13.80;99.90;;;;;;5120334;28;20179;-83
2022/10/12 16:26:02;;;;;;;25.00;12.97;;;13.80;99.90;;;;;;5121305;28;20250;-83
2022/10/12 16:28:28;;;;;;;24.50;13.30;;;13.70;99.90;;;;;;5120362;28;20195;-83
2022/10/12 16:30:53;;;;;;;22.57;12.87;;;13.70;99.90;;;;;;5118797;28;20187;-81
2022/10/12 16:33:19;;;;;;;22.77;13.63;;;13.60;99.90;;;;;;5120483;28;20519;-83
2022/10/12 16:35:45;;;;;;;28.33;14.93;;;13.60;99.90;;;;;;5118945;28;20657;-83
2022/10/12 16:38:12;;;;;;;23.10;13.57;;;13.50;99.90;;;;;;5119162;28;20199;-83
2022/10/12 16:40:38;;;;;;;22.30;13.90;;;13.50;99.90;;;;;;5118060;28;20255;-84
2022/10/12 16:43:04;;;;;;;21.50;14.33;;;13.40;99.90;;;;;;5117232;28;20201;-82
2022/10/12 16:45:29;;;;;;;15.93;11.17;;;13.40;99.90;;;;;;5119949;28;20696;-83
2022/10/12 16:47:55;;;;;;;15.67;11.73;;;13.30;99.90;;;;;;5119232;28;20187;-82
2022/10/12 16:50:22;;;;;;;19.67;12.00;;;13.30;99.90;;;;;;5119722;28;20187;-82
2022/10/12 16:52:48;;;;;;;22.60;12.13;;;13.20;99.90;;;;;;5117592;28;20217;-82
2022/10/12 16:55:14;;;;;;;18.27;12.30;;;13.20;99.90;;;;;;5119730;28;20176;-83
2022/10/12 16:57:40;;;;;;;18.23;11.60;;;13.10;99.90;;;;;;5117967;28;20240;-83
2022/10/12 17:00:09;;;;;;;19.60;12.03;;;13.00;99.90;;;;;;5118502;28;20206;-82
2022/10/12 17:02:35;;;;;;;19.33;12.10;;;12.90;99.90;;;;;;5118196;28;20184;-81
2022/10/12 17:05:01;;;;;;;18.80;11.17;;;12.90;99.90;;;;;;5118354;28;20243;-82
2022/10/12 17:07:26;;;;;;;22.03;12.43;;;12.80;99.90;;;;;;5118307;28;20241;-82
2022/10/12 17:09:54;;;;;;;19.20;11.77;;;12.80;99.90;;;;;;5117886;28;20233;-82
2022/10/12 17:12:21;;;;;;;20.70;12.63;;;12.70;99.90;;;;;;5119180;28;20236;-81
2022/10/12 17:14:47;;;;;;;23.20;12.10;;;12.60;99.90;;;;;;5118552;28;20206;-82
2022/10/12 17:17:13;;;;;;;20.23;12.17;;;12.60;99.90;;;;;;5119120;28;20210;-83
2022/10/12 17:19:39;;;;;;;19.97;11.73;;;12.60;99.90;;;;;;5120500;28;20217;-81
2022/10/12 17:22:08;;;;;;;18.00;12.20;;;12.50;99.90;;;;;;5118147;28;20187;-81
2022/10/12 17:24:36;;;;;;;22.63;14.03;;;12.50;99.90;;;;;;5118687;28;20664;-82
2022/10/12 17:27:03;;;;;;;20.47;13.33;;;12.50;99.90;;;;;;5117876;28;20195;-82
2022/10/12 17:29:30;;;;;;;22.87;16.53;;;12.50;99.90;;;;;;5119050;28;20202;-83
2022/10/12 17:31:56;;;;;;;27.90;18.63;;;12.50;99.90;;;;;;5119507;28;20658;-82
2022/10/12 17:34:27;;;;;;;34.20;21.33;;;12.50;99.90;;;;;;5118386;28;20195;-82
2022/10/12 17:36:54;;;;;;;40.80;26.73;;;12.50;99.90;;;;;;5119212;28;20199;-82
2022/10/12 17:39:21;;;;;;;48.30;31.27;;;12.50;99.90;;;;;;5119894;28;20232;-83
2022/10/12 17:41:47;;;;;;;55.33;36.27;;;12.40;99.90;;;;;;5119904;28;20238;-82
2022/10/12 17:44:14;;;;;;;60.13;38.33;;;12.40;99.90;;;;;;5118238;28;20171;-82
2022/10/12 17:46:41;;;;;;;59.27;39.30;;;12.40;99.90;;;;;;5118491;28;20196;-82
2022/10/12 17:49:09;;;;;;;59.53;39.93;;;12.40;99.90;;;;;;5119642;28;20167;-82
2022/10/12 17:51:35;;;;;;;60.47;40.97;;;12.30;99.90;;;;;;5120999;28;20253;-82
2022/10/12 17:54:01;;;;;;;56.77;40.73;;;12.30;99.90;;;;;;5119233;28;20179;-82
2022/10/12 17:56:26;;;;;;;53.30;36.90;;;12.20;99.90;;;;;;5118944;28;20180;-82
2022/10/12 17:58:54;;;;;;;46.70;32.10;;;12.20;99.90;;;;;;5119258;28;20205;-81
2022/10/12 18:01:20;;;;;;;42.17;31.00;;;12.10;99.90;;;;;;5119151;28;20179;-81
2022/10/12 18:03:46;;;;;;;37.10;27.57;;;12.00;99.90;;;;;;5118769;28;20176;-82
2022/10/12 18:06:14;;;;;;;35.20;21.67;;;12.00;99.90;;;;;;5119436;28;20581;-85
2022/10/12 18:08:41;;;;;;;33.30;21.93;;;11.90;99.90;;;;;;5119003;28;20210;-83
2022/10/12 18:11:08;;;;;;;33.40;23.53;;;11.80;99.90;;;;;;5118874;28;20171;-83
2022/10/12 18:13:35;;;;;;;32.27;23.30;;;11.80;99.90;;;;;;5118771;28;20178;-83
2022/10/12 18:16:02;;;;;;;37.87;23.53;;;11.70;99.90;;;;;;5119789;28;20637;-83
2022/10/12 18:18:27;;;;;;;31.57;23.40;;;11.60;99.90;;;;;;5119187;28;20683;-84
2022/10/12 18:20:53;;;;;;;38.70;28.30;;;11.60;99.90;;;;;;5119673;28;20167;-83
2022/10/12 18:23:19;;;;;;;45.47;32.10;;;11.60;99.90;;;;;;5118996;28;20229;-82
2022/10/12 18:25:47;;;;;;;49.70;32.20;;;11.50;99.90;;;;;;5118522;28;20176;-82
2022/10/12 18:28:14;;;;;;;46.63;31.73;;;11.40;99.90;;;;;;5117888;28;20196;-83
2022/10/12 18:30:49;;;;;;;43.57;30.20;;;11.40;99.90;;;;;;5117825;28;20220;-81
2022/10/12 18:33:15;;;;;;;42.50;28.90;;;11.40;99.90;;;;;;5118273;28;20174;-81
2022/10/12 18:35:42;;;;;;;43.50;29.03;;;11.30;99.90;;;;;;5118542;28;20254;-81
2022/10/12 18:38:08;;;;;;;35.00;26.10;;;11.30;99.90;;;;;;5116861;28;20553;-82
2022/10/12 18:40:35;;;;;;;39.93;27.03;;;11.20;99.90;;;;;;5119567;28;20193;-82
2022/10/12 18:43:01;;;;;;;35.67;25.07;;;11.20;99.90;;;;;;5118199;28;20171;-82
2022/10/12 18:45:27;;;;;;;36.10;24.17;;;11.10;99.90;;;;;;5124460;28;20177;-84
2022/10/12 18:47:53;;;;;;;33.47;24.50;;;11.10;99.90;;;;;;5122076;28;20189;-81
2022/10/12 18:50:19;;;;;;;41.43;28.43;;;11.00;99.90;;;;;;5119773;28;20191;-82
2022/10/12 18:52:45;;;;;;;43.03;27.47;;;10.90;99.90;;;;;;5118272;28;20193;-83
2022/10/12 18:55:11;;;;;;;43.37;28.87;;;10.90;99.90;;;;;;5119601;28;20176;-84
2022/10/12 18:57:36;;;;;;;42.47;27.07;;;10.90;99.90;;;;;;5118931;28;20201;-83
2022/10/12 19:00:07;;;;;;;39.03;27.00;;;10.80;99.90;;;;;;5119128;28;20617;-82
2022/10/12 19:02:34;;;;;;;49.30;29.43;;;10.80;99.90;;;;;;5124002;28;20641;-83
2022/10/12 19:04:59;;;;;;;41.00;28.20;;;10.70;99.90;;;;;;5120870;28;20290;-83
2022/10/12 19:07:25;;;;;;;46.43;31.53;;;10.70;99.90;;;;;;5121637;28;20680;-82
2022/10/12 19:09:51;;;;;;;44.13;29.87;;;10.60;99.90;;;;;;5123083;28;20172;-82
2022/10/12 19:12:18;;;;;;;41.83;29.20;;;10.60;99.90;;;;;;5122135;28;20520;-83
2022/10/12 19:14:45;;;;;;;41.13;29.00;;;10.50;99.90;;;;;;5123159;28;20180;-83
2022/10/12 19:17:10;;;;;;;39.17;28.07;;;10.50;99.90;;;;;;5121851;28;20196;-84
2022/10/12 19:19:37;;;;;;;37.73;25.97;;;10.50;99.90;;;;;;5121733;28;20255;-84
2022/10/12 19:22:03;;;;;;;40.20;25.17;;;10.40;99.90;;;;;;5123647;28;20169;-84
2022/10/12 19:24:28;;;;;;;44.43;28.00;;;10.40;99.90;;;;;;5123293;28;20165;-84
2022/10/12 19:26:54;;;;;;;56.00;38.07;;;10.30;99.90;;;;;;5119609;28;20198;-83
2022/10/12 19:29:20;;;;;;;49.87;34.27;;;10.30;99.90;;;;;;5121550;28;20174;-84
2022/10/12 19:31:47;;;;;;;45.83;30.13;;;10.30;99.90;;;;;;5120952;28;20176;-83
2022/10/12 19:34:15;;;;;;;44.70;30.43;;;10.30;99.90;;;;;;5121928;28;20185;-84
2022/10/12 19:36:41;;;;;;;48.23;31.03;;;10.20;99.90;;;;;;5120303;28;20206;-83
2022/10/12 19:39:10;;;;;;;43.73;29.27;;;10.10;99.90;;;;;;5120214;28;20211;-84
2022/10/12 19:41:37;;;;;;;37.70;25.87;;;10.10;99.90;;;;;;5121829;28;20262;-83
2022/10/12 19:44:03;;;;;;;38.00;26.43;;;10.10;99.90;;;;;;5130774;28;20176;-85
